Devonshire, New Jersey
Current Conditions -  °F | °C
As of 10:54 AM on Friday 24 Oct 2014 (Local Time) from KACY Reporting Station
Overcast Overcast  
Wind Chill: 57°   Ceiling: 3400
Heat Index: 57°   Visibility: 10mi
Dew Point: 45°   Wind: 17mph
Humidity: 64%   Direction: 330°NNW
Pressure: 29.86"   Gusts: 30mph
Location:  39.5436°N, 74.5919°W
Report Text: KACY 241454Z 33015G26KT 10SM OVC034 14/07 A2986 RMK AO2 PK WND 32026/1452 SLP111 T01390072 51009
Loading
Personal Weather Stations






























Interactive Weather Map
Tropical Storm Tracking
New forecast layout! Learn more

10-Day Weather Forecast

Advertisements
Track Severe Weather on mobile